Weather observations for the past three days for
La Grange, Fayette Regional Air Center Airport
| Date | Time (cdt) | Wind (kph) | Vis. (km) | Weather | Sky Cond. | Temperature (ºC) | Relative Humidity | Wind Chill (°C) | Heat Index (°C) | Pressure | Precipitation (cm) | ||||||
|---|---|---|---|---|---|---|---|---|---|---|---|---|---|---|---|---|---|
| Air | Dwpt | 6 hour | altimeter (cm) | sea level (mb) | 1 hr | 3 hr | 6 hr | ||||||||||
| Max. | Min. | ||||||||||||||||
| 08 | 18:35 | SE 7 | 16.09 | Overcast | SCT030 OVC043 | 26.1 | 23.4 | 85% | 28 | 75.67 | 0.0 | ||||||
| 08 | 18:15 | E 9 | 14.48 | Overcast | FEW021 SCT026 OVC041 | 26.1 | 23.4 | 85% | 28 | 75.67 | 0.0 | ||||||
| 08 | 17:55 | Calm | 16.09 | Mostly Cloudy | BKN021 BKN045 | 26.2 | 23.3 | 84% | 28 | 75.64 | 0.0 | ||||||
| 08 | 17:35 | E 6 | 14.48 | Mostly Cloudy | FEW021 BKN045 | 26.7 | 23.5 | 83% | 29 | 75.64 | 0.0 | ||||||
| 08 | 17:15 | SE 6 | 16.09 | Mostly Cloudy | SCT021 BKN045 | 26.3 | 23.4 | 84% | 28 | 75.67 | 0.0 | ||||||
| 08 | 16:55 | E 9 | 16.09 | Overcast | SCT020 OVC049 | 26 | 23.1 | 84% | 28 | 75.67 | 0.0 | ||||||
| 08 | 16:35 | E 7 | 16.09 | Overcast | OVC049 | 26.1 | 23.2 | 84% | 28 | 75.69 | 0.0 | ||||||
| 08 | 16:15 | Vrbl 7 | 16.09 | Overcast | SCT027 BKN039 OVC049 | 25.8 | 23.1 | 85% | 27 | 75.72 | 0.0 | ||||||
| 08 | 15:55 | E 9 | 16.09 | Overcast | BKN026 OVC042 | 25.4 | 22.7 | 85% | 27 | 75.74 | 0.0 | ||||||
| 08 | 15:35 | NE 6 | 14.48 | Mostly Cloudy | SCT027 BKN041 | 24.9 | 22.5 | 87% | 26 | 75.77 | 0.0 | ||||||
| 08 | 15:15 | Vrbl 6 | 16.09 | Mostly Cloudy | SCT027 BKN043 BKN060 | 25 | 22.3 | 85% | 26 | 75.77 | 0.0 | ||||||
| 08 | 14:55 | Vrbl 7 | 16.09 | Overcast | SCT027 BKN046 OVC055 | 24.2 | 22.1 | 88% | 24 | 75.79 | 0.0 | ||||||
| 08 | 14:35 | SE 7 | 16.09 | Overcast | SCT027 BKN046 OVC055 | 23.8 | 21.9 | 89% | 75.82 | 0.0 | |||||||
| 08 | 14:15 | E 9 | 16.09 | Overcast | OVC027 | 24.2 | 22 | 88% | 24 | 75.82 | 0.0 | ||||||
| 08 | 13:55 | SE 7 | 16.09 | Overcast | OVC027 | 23.3 | 21.5 | 90% | 75.84 | 0.0 | |||||||
| 08 | 13:35 | E 7 | 16.09 | Overcast | OVC027 | 23.1 | 21.3 | 90% | 75.84 | 0.0 | |||||||
| 08 | 13:15 | Calm | 16.09 | Overcast | OVC029 | 22.5 | 21 | 91% | 75.87 | 0.0 | |||||||
| 08 | 12:55 | E 6 | 14.48 | Overcast | OVC030 | 22.1 | 20.7 | 22.3 | 17.2 | 92% | 75.9 | 0.0 | |||||
| 08 | 12:35 | Vrbl 6 | 14.48 | Overcast | BKN030 OVC050 | 22.2 | 20.8 | 92% | 75.9 | 0.0 | |||||||
| 08 | 12:15 | SE 7 | 16.09 | Overcast | SCT034 OVC050 | 22.1 | 20.6 | 91% | 75.9 | 0.0 | |||||||
| 08 | 11:55 | SE 7 | 16.09 | Overcast | SCT036 OVC046 | 21.6 | 20 | 91% | 75.95 | 0.0 | |||||||
| 08 | 11:35 | Vrbl 6 | 16.09 | Overcast | OVC038 | 21.3 | 19.7 | 91% | 75.95 | 0.0 | |||||||
| 08 | 11:15 | Calm | 16.09 | Overcast | BKN033 OVC041 | 20.7 | 19 | 90% | 75.97 | 0.0 | |||||||
| 08 | 10:55 | NE 6 | 16.09 | Overcast | OVC034 | 20.3 | 18.6 | 90% | 75.97 | 0.0 | |||||||
| 08 | 10:35 | NE 7 | 16.09 | Mostly Cloudy | FEW011 BKN037 | 20.2 | 18.4 | 89% | 75.97 | 0.0 | |||||||
| 08 | 10:15 | N 7 | 16.09 | Mostly Cloudy | BKN011 | 20 | 18.4 | 91% | 75.97 | 0.0 | |||||||
| 08 | 09:55 | Vrbl 9 | 16.09 | Overcast | OVC011 | 19.5 | 17.9 | 91% | 75.97 | 0.0 | |||||||
| 08 | 09:35 | NE 9 | 16.09 | Overcast | OVC011 | 19.3 | 17.8 | 91% | 76 | 0.0 | |||||||
| 08 | 09:15 | N 11 | 14.48 | Overcast | OVC011 | 18.9 | 17.6 | 92% | 76 | 0.0 | |||||||
| 08 | 08:55 | NE 6 | 11.27 | Overcast | OVC011 | 18.4 | 17.4 | 94% | 76.02 | 0.0 | |||||||
| 08 | 08:35 | N 11 | 11.27 | Overcast | OVC011 | 18.1 | 17.2 | 95% | 76.02 | 0.0 | |||||||
| 08 | 08:15 | N 9 | 11.27 | Overcast | BKN011 OVC016 | 17.9 | 17.3 | 96% | 76.02 | 0.0 | |||||||
| 08 | 07:55 | N 6 | 6.44 | Fog/Mist | OVC014 | 17.7 | 17.5 | 99% | 76.02 | 0.0 | |||||||
| 08 | 07:35 | N 7 | 8.05 | Fog/Mist | OVC014 | 17.5 | 17.3 | 99% | 76 | 0.0 | |||||||
| 08 | 07:15 | N 7 | 11.27 | Overcast | OVC015 | 17.2 | 17.2 | 100% | 76 | 0.0 | |||||||
| 08 | 06:55 | N 6 | 6.44 | Fog/Mist | OVC012 | 17.2 | 17 | 18 | 17 | 99% | 76.05 | 0.0 | 0.13 | ||||
| 08 | 06:35 | Calm | 9.66 | Fog/Mist | OVC012 | 17.1 | 17 | 99% | 76.05 | 0.0 | |||||||
| 08 | 06:15 | N 7 | 11.27 | Overcast | BKN012 OVC018 | 17 | 16.9 | 99% | 76.05 | 0.0 | |||||||
| 08 | 05:55 | NE 6 | 6.44 | Light Rain Fog/Mist Thunderstorm in Vicinity | FEW007 BKN014 OVC020 | 17.1 | 16.5 | 96% | 76.02 | 0.0 | 0.13 | ||||||
| 08 | 05:35 | Calm | 6.44 | Light Rain Fog/Mist | FEW007 OVC014 | 17.7 | 16.1 | 90% | 76.02 | 0.0 | |||||||
| 08 | 05:15 | N 9 | 12.87 | Light Rain | OVC015 | 18 | 16 | 88% | 76.05 | 0.0 | |||||||
| 08 | 04:55 | N 7 | 14.48 | Overcast | OVC015 | 17.7 | 16 | 90% | 76.02 | 0.0 | |||||||
| 08 | 04:35 | N 6 | 1.21 | Fog/Mist | OVC016 | 17.7 | 15.9 | 89% | 75.97 | 0.0 | |||||||
| 08 | 04:15 | N 6 | 16.09 | Overcast | OVC017 | 17.6 | 15.8 | 89% | 76 | 0.0 | |||||||
| 08 | 03:55 | N 6 | 14.48 | Overcast | OVC020 | 17.6 | 15.8 | 89% | 76.02 | 0.0 | |||||||
| 08 | 03:35 | N 6 | 14.48 | Overcast | OVC020 | 17.6 | 15.6 | 88% | 76 | 0.0 | |||||||
| 08 | 03:15 | N 6 | 14.48 | Overcast | OVC021 | 17.5 | 15.5 | 88% | 76.02 | 0.0 | |||||||
| 08 | 02:55 | N 6 | 14.48 | Overcast | OVC023 | 17.5 | 15.3 | 87% | 76.02 | 0.0 | |||||||
| 08 | 02:35 | N 7 | 14.48 | Overcast | OVC024 | 17.5 | 15.3 | 87% | 76.02 | 0.0 | |||||||
| 08 | 02:15 | N 7 | 16.09 | Overcast | OVC025 | 17.5 | 15.2 | 86% | 76.05 | 0.0 | |||||||
| 08 | 01:55 | N 9 | 16.09 | Overcast | OVC026 | 17.6 | 15.2 | 86% | 76.1 | 0.0 | |||||||
| 08 | 01:35 | NW 13 | 16.09 | Overcast | OVC027 | 17.8 | 15.2 | 85% | 76.12 | 0.0 | |||||||
| 08 | 01:15 | NW 7 | 16.09 | Mostly Cloudy | BKN027 BKN230 | 17.4 | 15.2 | 87% | 76.1 | 0.0 | |||||||
| 08 | 00:55 | N 9 | 14.48 | Partly Cloudy | SCT230 SCT270 | 17.2 | 15.2 | 20.3 | 17.2 | 88% | 76.05 | 0.0 | |||||
| 08 | 00:35 | N 6 | 14.48 | Mostly Cloudy | FEW035 BKN230 | 17.3 | 15.1 | 87% | 76.05 | 0.0 | |||||||
| 08 | 00:15 | N 6 | 16.09 | Mostly Cloudy | SCT030 BKN035 | 17.5 | 15 | 85% | 76.05 | 0.0 | |||||||
| 07 | 23:55 | N 13 | 16.09 | A Few Clouds | FEW030 | 17.9 | 15 | 83% | 76.1 | 0.0 | |||||||
| 07 | 23:35 | N 13 | 16.09 | A Few Clouds | FEW270 | 17.8 | 15.1 | 84% | 76.1 | 0.0 | |||||||
| 07 | 23:15 | Calm | 16.09 | Partly Cloudy | FEW190 SCT280 | 18 | 15 | 83% | 76.1 | 0.0 | |||||||
| 07 | 22:55 | Calm | 16.09 | Mostly Cloudy | BKN190 BKN210 | 18.1 | 14.9 | 82% | 76.1 | 0.0 | |||||||
| 07 | 22:35 | NE 6 | 16.09 | Mostly Cloudy | BKN190 BKN210 | 18.2 | 14.8 | 81% | 76.1 | 0.0 | |||||||
| 07 | 22:15 | NE 6 | 16.09 | Mostly Cloudy | BKN190 BKN210 | 18.1 | 14.9 | 82% | 76.05 | 0.0 | |||||||
| 07 | 21:55 | N 13 | 16.09 | Partly Cloudy | SCT190 SCT210 | 18.4 | 15 | 81% | 76.02 | 0.0 | |||||||
| 07 | 21:35 | N 7 | 16.09 | Mostly Cloudy | BKN180 | 18.6 | 15 | 80% | 76.05 | 0.0 | |||||||
| 07 | 21:15 | NE 9 | 16.09 | Mostly Cloudy | BKN180 BKN200 | 18.7 | 15.1 | 80% | 76 | 0.0 | |||||||
| 07 | 20:55 | E 9 | 16.09 | Partly Cloudy | SCT200 | 18.8 | 15.2 | 80% | 76.02 | 0.0 | |||||||
| 07 | 20:35 | NE 6 | 16.09 | Fair | CLR | 19 | 15.3 | 79% | 76.07 | 0.0 | |||||||
| 07 | 20:15 | N 9 | 14.48 | Partly Cloudy | SCT240 | 19.4 | 14.9 | 75% | 76.07 | 0.0 | |||||||
| 07 | 19:55 | N 9 | 14.48 | Mostly Cloudy | BKN240 | 19.6 | 14.7 | 73% | 76.07 | 0.0 | |||||||
| 07 | 19:35 | NE 6 | 12.87 | Mostly Cloudy | FEW200 BKN250 | 19.9 | 14.6 | 72% | 76.1 | 0.0 | |||||||
| 07 | 19:15 | NE 11 | 14.48 | Partly Cloudy | FEW210 SCT240 | 20 | 14.2 | 69% | 76.1 | 0.0 | |||||||
| 07 | 18:55 | N 15 | 14.48 | Fair | CLR | 20.3 | 14.5 | 23.5 | 19.7 | 69% | 76.1 | 0.0 | |||||
| 07 | 18:35 | NE 17 | 14.48 | Partly Cloudy | SCT120 | 20 | 14.4 | 70% | 76.1 | 0.0 | |||||||
| 07 | 18:15 | N 13 | 16.09 | Mostly Cloudy | FEW049 BKN120 | 20.5 | 14.6 | 69% | 76.15 | 0.0 | |||||||
| 07 | 17:55 | N 17 | 14.48 | Overcast | OVC049 | 20 | 14.4 | 70% | 76.12 | 0.0 | |||||||
| 07 | 17:35 | N 15 | 14.48 | Mostly Cloudy | BKN050 BKN130 | 20.1 | 14.5 | 70% | 76.12 | 0.0 | |||||||
| 07 | 17:15 | N 13 | 16.09 | Partly Cloudy | SCT130 | 20.4 | 14.8 | 70% | 76.12 | 0.0 | |||||||
| 07 | 16:55 | N 22 | 14.48 | Mostly Cloudy | FEW130 SCT190 BKN240 | 21.1 | 14.8 | 67% | 76.1 | 0.0 | |||||||
| 07 | 16:35 | N 15 | 16.09 | Mostly Cloudy | BKN190 | 21.6 | 15.2 | 67% | 76.07 | 0.0 | |||||||
| 07 | 16:15 | N 19 | 16.09 | Mostly Cloudy | SCT190 SCT210 BKN380 | 22.3 | 15.6 | 66% | 76.07 | 0.0 | |||||||
| 07 | 15:15 | NE 15 | 14.48 | Mostly Cloudy | SCT220 SCT340 BKN370 | 23.3 | 16.4 | 65% | 76.12 | 0.0 | |||||||
| 07 | 14:55 | N 17 | 16.09 | Partly Cloudy | FEW130 SCT160 SCT370 | 23 | 16.6 | 67% | 76.17 | 0.0 | |||||||
| 07 | 14:35 | N 17 | 14.48 | Partly Cloudy | FEW120 SCT160 SCT340 | 23.3 | 17 | 68% | 76.2 | 0.0 | |||||||
| 07 | 14:15 | NE 15 | 16.09 | Partly Cloudy | FEW120 SCT170 SCT360 | 22.1 | 16.4 | 70% | 76.17 | 0.0 | |||||||
| 07 | 13:55 | NE 15 | 16.09 | Partly Cloudy | SCT120 | 20.9 | 15.7 | 72% | 76.17 | 0.0 | |||||||
| 07 | 13:35 | NE 15 | 16.09 | Mostly Cloudy | FEW120 SCT180 BKN370 | 20.7 | 15.6 | 73% | 76.17 | 0.0 | |||||||
| 07 | 13:15 | NE 20 | 16.09 | Mostly Cloudy | FEW032 BKN180 | 20.1 | 15.2 | 74% | 76.25 | 0.0 | |||||||
| 07 | 12:55 | N 13 | 16.09 | Mostly Cloudy | SCT031 BKN050 | 20.2 | 15.6 | 20.2 | 15.2 | 75% | 76.3 | 0.0 | |||||
| 07 | 12:35 | N 20 | 16.09 | Mostly Cloudy | FEW030 BKN050 | 19 | 14.9 | 77% | 76.33 | 0.0 | |||||||
| 07 | 12:15 | N 19 | 16.09 | Mostly Cloudy | BKN030 BKN050 | 18.1 | 14.5 | 80% | 76.33 | 0.0 | |||||||
| 07 | 11:55 | N 19 | 14.48 | Overcast | BKN018 OVC031 | 17.7 | 14.4 | 81% | 76.33 | 0.0 | |||||||
| 07 | 11:35 | N 19 | 16.09 | Overcast | OVC017 | 17.6 | 14.4 | 82% | 76.35 | 0.0 | |||||||
| 07 | 11:15 | N 19 | 14.48 | Overcast | OVC017 | 17.2 | 14.4 | 84% | 76.35 | 0.0 | |||||||
| 07 | 10:55 | N 11 | 14.48 | Overcast | OVC016 | 16.6 | 14.2 | 86% | 76.35 | 0.0 | |||||||
| 07 | 10:35 | N 11 | 16.09 | Overcast | OVC016 | 17.1 | 14.6 | 85% | 76.33 | 0.0 | |||||||
| 07 | 10:15 | N 19 | 14.48 | Overcast | BKN015 OVC023 | 17.1 | 14.6 | 85% | 76.3 | 0.0 | |||||||
| 07 | 09:55 | N 26 G 37 | 16.09 | Overcast | FEW012 OVC023 | 16.3 | 14.4 | 89% | 76.23 | 0.0 | |||||||
| 07 | 09:35 | N 28 G 37 | 12.87 | Overcast | BKN012 OVC022 | 15.9 | 14.5 | 91% | 76.23 | 0.0 | |||||||
| 07 | 09:15 | N 15 | 11.27 | Overcast | OVC013 | 15.7 | 14.4 | 92% | 76.3 | 0.0 | |||||||
| 07 | 08:55 | N 17 | 12.87 | Overcast | OVC012 | 15.6 | 14.6 | 94% | 76.3 | 0.0 | |||||||
| 07 | 08:35 | N 19 G 35 | 12.87 | Overcast | OVC010 | 15.3 | 14.9 | 97% | 76.3 | 0.0 | |||||||
| 07 | 08:15 | N 19 G 33 | 8.05 | Light Rain Fog/Mist | OVC007 | 15.4 | 15.4 | 100% | 76.25 | 0.0 | |||||||
| 07 | 07:55 | N 17 | 11.27 | Overcast | OVC008 | 15.8 | 15.6 | 99% | 76.25 | 0.0 | |||||||
| 07 | 07:35 | N 11 | 11.27 | Overcast | OVC009 | 15.9 | 15.6 | 98% | 76.25 | 0.0 | |||||||
| 07 | 07:15 | N 17 G 28 | 11.27 | Overcast | OVC009 | 16 | 15.7 | 98% | 76.25 | 0.0 | |||||||
| 07 | 06:55 | N 17 G 30 | 9.66 | Fog/Mist | OVC009 | 16.1 | 15.6 | 17.5 | 16.1 | 97% | 76.23 | 0.0 | |||||
| 07 | 06:35 | N 19 | 12.87 | Overcast | OVC010 | 16.3 | 15.7 | 96% | 76.15 | 0.0 | |||||||
| 07 | 06:15 | N 19 | 14.48 | Overcast | OVC011 | 16.4 | 15.6 | 95% | 76.12 | 0.0 | |||||||
| 07 | 05:55 | N 11 | 14.48 | Overcast | OVC012 | 16.7 | 15.7 | 94% | 76.17 | 0.0 | |||||||
| 07 | 05:35 | N 15 | 14.48 | Overcast | OVC013 | 16.9 | 15.8 | 93% | 76.15 | 0.0 | |||||||
| 07 | 05:15 | N 11 | 16.09 | Overcast | OVC014 | 17 | 15.7 | 92% | 76.1 | 0.0 | |||||||
| 07 | 04:55 | N 7 | 16.09 | Overcast | OVC015 | 17.1 | 15.8 | 92% | 76.12 | 0.0 | |||||||
| 07 | 04:35 | N 7 | 16.09 | Overcast | OVC015 | 17.2 | 15.8 | 92% | 76.1 | 0.0 | |||||||
| 07 | 04:15 | N 13 | 16.09 | Overcast | SCT015 OVC024 | 17.1 | 15.7 | 92% | 76.07 | 0.0 | |||||||
| 07 | 03:55 | N 11 | 16.09 | Overcast | SCT015 OVC024 | 17.2 | 15.7 | 91% | 76.07 | 0.0 | |||||||
| 07 | 03:35 | N 11 | 16.09 | Overcast | FEW015 OVC024 | 17.1 | 15.5 | 90% | 76.05 | 0.0 | |||||||
| 07 | 03:15 | N 9 | 16.09 | Overcast | SCT016 OVC023 | 17.1 | 15.5 | 90% | 76.07 | 0.0 | |||||||
| 07 | 02:55 | N 15 | 16.09 | Overcast | SCT016 OVC022 | 17.2 | 15.5 | 90% | 76.1 | 0.0 | |||||||
| 07 | 02:35 | N 15 | 16.09 | Overcast | SCT016 OVC022 | 17.2 | 15.4 | 89% | 76.07 | 0.0 | |||||||
| 07 | 02:15 | NE 11 | 16.09 | Overcast | FEW016 OVC023 | 17.2 | 15.4 | 89% | 76.1 | 0.0 | |||||||
| 07 | 01:55 | NE 15 | 16.09 | Overcast | BKN016 OVC022 | 17.2 | 15.2 | 88% | 76.07 | 0.0 | |||||||
| 07 | 01:35 | NE 19 | 16.09 | Overcast | BKN016 OVC022 | 17.3 | 15.3 | 88% | 76.07 | 0.0 | |||||||
| 07 | 01:15 | N 15 | 16.09 | Overcast | BKN016 OVC022 | 17.4 | 15.4 | 88% | 76.1 | 0.0 | |||||||
| 07 | 00:55 | N 13 | 16.09 | Overcast | OVC016 | 17.5 | 15.5 | 20.3 | 17.5 | 88% | 76.1 | 0.0 | |||||
| 07 | 00:35 | N 11 | 16.09 | Overcast | OVC017 | 17.6 | 15.6 | 88% | 76.1 | 0.0 | |||||||
| 07 | 00:15 | N 11 | 16.09 | Overcast | OVC017 | 17.7 | 15.5 | 87% | 76.1 | 0.0 | |||||||
| 06 | 23:55 | N 17 | 16.09 | Overcast | OVC017 | 17.7 | 15.5 | 87% | 76.07 | 0.0 | |||||||
| 06 | 23:35 | N 13 | 16.09 | Overcast | OVC017 | 17.8 | 15.4 | 86% | 76.07 | 0.0 | |||||||
| 06 | 23:15 | N 19 | 16.09 | Overcast | BKN016 OVC023 | 17.8 | 15.6 | 87% | 76.07 | 0.0 | |||||||
| 06 | 22:55 | N 17 | 16.09 | Overcast | SCT016 OVC023 | 17.9 | 15.7 | 87% | 76.05 | 0.0 | |||||||
| 06 | 22:35 | N 13 | 16.09 | Overcast | OVC022 | 17.9 | 15.7 | 87% | 76.05 | 0.0 | |||||||
| 06 | 22:15 | N 13 | 16.09 | Overcast | OVC021 | 17.9 | 15.7 | 87% | 76.05 | 0.0 | |||||||
| 06 | 21:55 | N 17 | 16.09 | Overcast | OVC019 | 17.9 | 15.7 | 87% | 76 | 0.0 | |||||||
| 06 | 21:35 | N 24 | 16.09 | Overcast | OVC016 | 18 | 15.6 | 86% | 75.97 | 0.0 | |||||||
| 06 | 21:15 | N 24 G 30 | 16.09 | Overcast | OVC016 | 18 | 15.6 | 86% | 75.97 | 0.0 | |||||||
| 06 | 20:55 | N 19 | 16.09 | Overcast | OVC015 | 18.2 | 15.7 | 85% | 75.95 | 0.0 | |||||||
| 06 | 20:35 | N 20 | 16.09 | Mostly Cloudy | BKN016 | 18.3 | 15.9 | 86% | 75.92 | 0.0 | |||||||
| 06 | 20:15 | N 15 | 14.48 | Partly Cloudy | FEW017 SCT250 | 18.3 | 15.7 | 85% | 75.9 | 0.0 | |||||||
| 06 | 19:55 | N 17 | 16.09 | A Few Clouds | FEW019 | 18.8 | 15.9 | 83% | 75.87 | 0.0 | |||||||
| 06 | 19:35 | N 26 G 33 | 16.09 | Partly Cloudy | SCT021 | 19.3 | 16 | 81% | 75.84 | 0.0 | |||||||
| 06 | 19:15 | N 20 | 16.09 | Mostly Cloudy | BKN022 | 19.9 | 16.2 | 79% | 75.82 | 0.0 | |||||||
| 06 | 18:55 | N 24 G 31 | 16.09 | Partly Cloudy | FEW019 SCT025 | 21 | 16.9 | 28.7 | 21 | 78% | 75.82 | 0.0 | |||||
| 06 | 18:35 | N 17 | 14.48 | Mostly Cloudy | BKN019 | 21.1 | 17.2 | 79% | 75.79 | 0.0 | |||||||
| 06 | 18:15 | N 15 | 16.09 | Mostly Cloudy | BKN019 | 21.7 | 17.7 | 78% | 75.79 | 0.0 | |||||||
| 06 | 17:55 | N 17 G 31 | 16.09 | A Few Clouds | FEW370 | 21.8 | 18 | 79% | 75.74 | 0.0 | |||||||
| 06 | 17:35 | N 17 G 33 | 16.09 | A Few Clouds | FEW022 | 22.2 | 18.4 | 79% | 75.74 | 0.0 | |||||||
| 06 | 17:15 | N 24 G 35 | 16.09 | Mostly Cloudy | BKN022 | 22.6 | 18.8 | 79% | 75.74 | 0.0 | |||||||
| 06 | 16:55 | N 17 | 16.09 | Overcast | OVC022 | 23.3 | 20 | 82% | 75.74 | 0.0 | |||||||
| 06 | 16:35 | NW 33 G 43 | 16.09 | Mostly Cloudy and Breezy | BKN022 BKN029 | 25.1 | 21.3 | 80% | 26 | 75.72 | 0.0 | ||||||
| 06 | 16:15 | N 20 | 16.09 | Overcast | FEW024 OVC030 | 27.5 | 23.9 | 81% | 31 | 75.69 | 0.0 | ||||||
| 06 | 15:55 | N 22 | 16.09 | Overcast | BKN025 OVC048 | 27.4 | 23.9 | 81% | 31 | 75.69 | 0.0 | ||||||
| 06 | 15:35 | N 15 | 16.09 | Mostly Cloudy | BKN027 BKN034 | 28.4 | 24.8 | 81% | 33 | 75.69 | 0.0 | ||||||
| 06 | 15:15 | N 6 | 16.09 | A Few Clouds | FEW023 | 28.2 | 25.1 | 83% | 33 | 75.69 | 0.0 | ||||||
| 06 | 14:55 | Vrbl 7 | 16.09 | A Few Clouds | FEW300 | 28.1 | 24.8 | 82% | 33 | 75.72 | 0.0 | ||||||
| 06 | 14:35 | E 7 | 16.09 | A Few Clouds | FEW300 | 27.6 | 24.5 | 83% | 32 | 75.69 | 0.0 | ||||||
| 06 | 14:15 | E 9 | 16.09 | Partly Cloudy | FEW047 SCT330 SCT360 | 26.4 | 23.4 | 84% | 29 | 75.72 | 0.0 | ||||||
| 06 | 13:55 | NE 7 | 16.09 | Partly Cloudy | SCT048 SCT360 | 24.1 | 21.8 | 87% | 24 | 75.74 | 0.0 | ||||||
| 06 | 13:35 | N 13 | 16.09 | Partly Cloudy | FEW049 SCT270 SCT350 SCT380 | 24.4 | 22 | 87% | 25 | 75.77 | 0.0 | ||||||
| 06 | 13:15 | N 15 | 16.09 | Mostly Cloudy | FEW018 SCT028 BKN047 BKN280 BKN360 | 23.4 | 21.4 | 89% | 75.77 | 0.0 | |||||||
| 06 | 12:55 | N 17 | 16.09 | Mostly Cloudy | BKN016 BKN028 BKN290 | 24 | 21.9 | 27.7 | 23.9 | 88% | 24 | 75.79 | 0.0 | ||||
| 06 | 12:35 | Vrbl 6 | 16.09 | Partly Cloudy | FEW016 SCT310 | 27.7 | 25.2 | 86% | 32 | 75.79 | 0.0 | ||||||
| 06 | 12:15 | Vrbl 6 | 16.09 | A Few Clouds | FEW015 | 26.6 | 25.1 | 92% | 30 | 75.82 | 0.0 | ||||||
| 06 | 11:55 | NE 9 | 16.09 | Mostly Cloudy | SCT011 BKN017 | 25.9 | 25 | 95% | 28 | 75.84 | 0.0 | ||||||
| 06 | 11:35 | NE 7 | 16.09 | Mostly Cloudy | BKN011 BKN018 | 25.8 | 25.1 | 96% | 28 | 75.87 | 0.0 | ||||||
| 06 | 11:15 | NE 7 | 16.09 | Partly Cloudy | SCT012 SCT026 | 25.8 | 25.1 | 96% | 28 | 75.87 | 0.0 | ||||||
| 06 | 10:55 | NE 6 | 16.09 | A Few Clouds | FEW016 | 25.5 | 25.2 | 98% | 27 | 75.79 | 0.0 | ||||||
| 06 | 10:35 | Calm | 14.48 | Partly Cloudy | SCT012 SCT021 | 25.2 | 25 | 99% | 26 | 75.77 | 0.0 | ||||||
| 06 | 10:15 | Vrbl 6 | 16.09 | Overcast | BKN011 BKN018 OVC025 | 25.1 | 25 | 99% | 26 | 75.77 | 0.0 | ||||||
| 06 | 09:55 | Calm | 16.09 | Overcast | BKN011 OVC017 | 25 | 24.8 | 99% | 25 | 75.77 | 0.0 | ||||||
| 06 | 09:35 | SE 6 | 16.09 | Overcast | OVC011 | 24.9 | 24.9 | 100% | 25 | 75.74 | 0.0 | ||||||
| 06 | 09:15 | SE 6 | 16.09 | Overcast | OVC009 | 24.7 | 24.7 | 100% | 24 | 75.72 | 0.0 | ||||||
| 06 | 08:55 | Vrbl 6 | 16.09 | Overcast | OVC009 | 24.5 | 24.5 | 100% | 24 | 75.69 | 0.0 | ||||||
| 06 | 08:35 | SE 6 | 16.09 | Overcast | OVC010 | 24.4 | 24.4 | 100% | 24 | 75.69 | 0.0 | ||||||
| 06 | 08:15 | Calm | 16.09 | Overcast | OVC010 | 24.3 | 24.3 | 100% | 23 | 75.72 | 0.0 | ||||||
| 06 | 07:55 | Calm | 16.09 | Overcast | OVC010 | 24.1 | 24.1 | 100% | 23 | 75.72 | 0.0 | ||||||
| 06 | 07:35 | Calm | 16.09 | Overcast | OVC009 | 24 | 24 | 100% | 23 | 75.69 | 0.0 | ||||||
| 06 | 07:15 | SE 7 | 16.09 | Overcast | OVC009 | 23.9 | 23.9 | 100% | 22 | 75.69 | 0.0 | ||||||
| 06 | 06:55 | S 7 | 12.87 | Overcast | OVC009 | 23.8 | 23.8 | 24 | 23.4 | 100% | 75.69 | 0.0 | |||||
| 06 | 06:35 | S 6 | 12.87 | Overcast | OVC009 | 23.8 | 23.8 | 100% | 75.67 | 0.0 | |||||||
| 06 | 06:15 | SE 7 | 14.48 | Overcast | OVC008 | 23.7 | 23.7 | 100% | 75.67 | 0.0 | |||||||
| 06 | 05:55 | Calm | 14.48 | Overcast | OVC007 | 23.5 | 23.5 | 100% | 75.67 | 0.0 | |||||||
| 06 | 05:35 | Calm | 8.05 | Fog/Mist | OVC008 | 23.5 | 23.5 | 100% | 75.64 | 0.0 | |||||||
| 06 | 05:15 | S 7 | 12.87 | Overcast | OVC008 | 23.4 | 23.4 | 100% | 75.62 | 0.0 | |||||||
| 06 | 04:55 | S 11 | 14.48 | Overcast | OVC009 | 23.6 | 23.6 | 100% | 75.59 | 0.0 | |||||||
| 06 | 04:35 | S 11 | 16.09 | Overcast | OVC009 | 23.8 | 23.8 | 100% | 75.59 | 0.0 | |||||||
| 06 | 04:15 | S 9 | 14.48 | Overcast | OVC010 | 23.9 | 23.9 | 100% | 22 | 75.59 | 0.0 | ||||||
| 06 | 03:55 | S 9 | 14.48 | Overcast | OVC010 | 24 | 24 | 100% | 23 | 75.59 | 0.0 | ||||||
| 06 | 03:35 | S 9 | 16.09 | Overcast | OVC011 | 24 | 24 | 100% | 23 | 75.59 | 0.0 | ||||||
| 06 | 03:15 | S 11 | 16.09 | Overcast | OVC011 | 24 | 24 | 100% | 23 | 75.59 | 0.0 | ||||||
| 06 | 02:55 | S 11 | 16.09 | Overcast | OVC012 | 23.9 | 23.9 | 100% | 22 | 75.62 | 0.0 | ||||||
| 06 | 02:35 | S 13 | 14.48 | Mostly Cloudy | BKN013 | 23.8 | 23.8 | 100% | 75.62 | 0.0 | |||||||
| 06 | 02:15 | S 13 | 14.48 | Partly Cloudy | SCT013 | 23.6 | 23.6 | 100% | 75.64 | 0.0 | |||||||
| 06 | 01:55 | SE 11 | 14.48 | Fair | CLR | 23.6 | 23.6 | 100% | 75.64 | 0.0 | |||||||
| 06 | 01:35 | S 11 | 14.48 | Fair | CLR | 23.6 | 23.6 | 100% | 75.67 | 0.0 | |||||||
| 06 | 00:55 | SE 11 | 16.09 | Fair | CLR | 23.9 | 23.9 | 27.5 | 23.9 | 100% | 22 | 75.67 | 0.0 | ||||
| 06 | 00:35 | SE 15 | 16.09 | Fair | CLR | 24 | 24 | 100% | 23 | 75.64 | 0.0 | ||||||
| 06 | 00:15 | S 13 | 16.09 | Fair | CLR | 24.1 | 24.1 | 100% | 23 | 75.67 | 0.0 | ||||||
| 05 | 23:55 | S 15 | 16.09 | A Few Clouds | FEW250 | 24.2 | 24.2 | 100% | 23 | 75.67 | 0.0 | ||||||
| 05 | 23:35 | S 13 | 16.09 | A Few Clouds | FEW250 | 24.3 | 24.3 | 100% | 23 | 75.67 | 0.0 | ||||||
| 05 | 23:15 | SE 13 | 14.48 | A Few Clouds | FEW250 | 24.5 | 24.5 | 100% | 24 | 75.64 | 0.0 | ||||||
| 05 | 22:55 | S 17 | 14.48 | Fair | CLR | 24.7 | 24.5 | 99% | 25 | 75.62 | 0.0 | ||||||
| 05 | 22:35 | Calm | 14.48 | Fair | CLR | 24.8 | 24.5 | 98% | 25 | 75.59 | 0.0 | ||||||
| 05 | 22:15 | SE 15 | 16.09 | Partly Cloudy | SCT044 | 25 | 24.5 | 97% | 25 | 75.59 | 0.0 | ||||||
| 05 | 21:55 | SE 20 G 28 | 16.09 | Overcast | OVC043 | 25.3 | 24.5 | 95% | 26 | 75.59 | 0.0 | ||||||
| 05 | 21:35 | SE 13 | 16.09 | Overcast | OVC041 | 25.4 | 24.4 | 94% | 27 | 75.57 | 0.0 | ||||||
| 05 | 21:15 | SE 17 | 16.09 | Overcast | OVC041 | 25.5 | 24.3 | 93% | 27 | 75.57 | 0.0 | ||||||
| 05 | 20:55 | SE 15 | 16.09 | Overcast | OVC041 | 25.8 | 24.2 | 91% | 28 | 75.54 | 0.0 | ||||||
| 05 | 20:35 | S 17 | 16.09 | Overcast | OVC041 | 26 | 24 | 89% | 28 | 75.51 | 0.0 | ||||||
| 05 | 20:15 | SE 15 | 12.87 | Overcast | OVC041 | 26.2 | 24 | 88% | 28 | 75.49 | 0.0 | ||||||
| 05 | 19:55 | SE 15 | 12.87 | Overcast | OVC040 | 26.5 | 24.1 | 87% | 29 | 75.46 | 0.0 | ||||||
| 05 | 19:35 | SE 17 | 14.48 | Overcast | FEW029 OVC040 | 26.8 | 24.1 | 85% | 30 | 75.46 | 0.0 | ||||||
| 05 | 19:15 | S 20 | 12.87 | Overcast | SCT028 OVC039 | 27.1 | 24 | 83% | 30 | 75.46 | 0.0 | ||||||
| 05 | 18:55 | SE 15 | 12.87 | Overcast | BKN030 OVC039 | 27.6 | 24.2 | 30 | 26.6 | 82% | 31 | 75.46 | 0.0 | ||||
| Date | Time (cdt) | Wind (kph) | Vis. (km) | Weather | Sky Cond. | Air | Dwpt | Max. | Min. | Relative Humidity | Wind Chill (°C) | Heat Index (°C) | altimeter (cm) | sea level (mb) | 1 hr | 3 hr | 6 hr |
| 6 hour | |||||||||||||||||
| Temperature (ºC) | Pressure | Precipitation (cm) | |||||||||||||||